Wheelersburg, Ohio
Current Conditions -  °F | °C
As of 4:55 PM on Friday 31 Oct 2014 (Local Time) from KDWU Reporting Station
Overcast Overcast  
Wind Chill: 46°   Ceiling: 3300
Heat Index: 46°   Visibility: 8mi
Dew Point: 39°   Wind: 0mph
Humidity: 76%   Direction: NA
Pressure: 29.84"   Gusts: NA
Location:  38.73°N, 82.86°W
Report Text: KDWU 312055Z AUTO 00000KT 8SM SCT023 OVC033 08/04 A2984 RMK AO1 57017
Loading
Personal Weather Stations






























Interactive Weather Map
Tropical Storm Tracking
New forecast layout! Learn more

10-Day Weather Forecast

Advertisements
Track Severe Weather on mobile